Time;durP1;ratioP1;P1;durP2;ratioP2;P2;SDS_P1;SDS_P2;PMS_P1;PMS_P2;Temp;Humidity;BMP_temperature;BMP_pressure;BME280_temperature;BME280_humidity;BME280_pressure;Samples;Min_cycle;Max_cycle;Signal;HPM_P1;HPM_P2
2021/08/08 00:02:15;;;;;;;4.30;2.20;;;;;;;;;;5077846;28;20031;-86
2021/08/08 00:04:41;;;;;;;2.30;1.80;;;;;;;;;;5077724;28;20020;-86
2021/08/08 00:07:08;;;;;;;2.85;2.00;;;;;;;;;;5076857;28;20135;-85
2021/08/08 00:09:34;;;;;;;3.08;2.15;;;;;;;;;;5076503;28;20024;-85
2021/08/08 00:12:00;;;;;;;3.83;2.22;;;;;;;;;;5077385;28;20092;-85
2021/08/08 00:14:26;;;;;;;2.88;1.92;;;;;;;;;;5077404;28;20041;-85
2021/08/08 00:16:52;;;;;;;5.15;2.40;;;;;;;;;;5076434;28;20020;-85
2021/08/08 00:19:18;;;;;;;5.68;2.10;;;;;;;;;;5077335;28;20307;-85
2021/08/08 00:21:44;;;;;;;3.80;2.33;;;;;;;;;;5077387;28;20036;-85
2021/08/08 00:24:10;;;;;;;4.95;2.25;;;;;;;;;;5077339;28;20044;-85
2021/08/08 00:26:36;;;;;;;3.47;2.17;;;;;;;;;;5077305;28;20029;-85
2021/08/08 00:29:02;;;;;;;3.55;2.30;;;;;;;;;;5077174;28;20021;-85
2021/08/08 00:31:28;;;;;;;2.22;1.90;;;;;;;;;;5077438;28;20161;-86
2021/08/08 00:33:55;;;;;;;4.47;2.35;;;;;;;;;;5077477;28;20021;-86
2021/08/08 00:36:21;;;;;;;2.45;1.65;;;;;;;;;;5076381;28;20070;-86
2021/08/08 00:38:47;;;;;;;3.35;2.03;;;;;;;;;;5077225;28;20040;-85
2021/08/08 00:41:13;;;;;;;3.67;2.30;;;;;;;;;;5076242;28;20032;-85
2021/08/08 00:43:39;;;;;;;4.10;1.77;;;;;;;;;;5077418;28;20047;-85
2021/08/08 00:46:06;;;;;;;2.80;1.75;;;;;;;;;;5077020;28;20021;-86
2021/08/08 00:48:32;;;;;;;4.78;1.92;;;;;;;;;;5079177;28;20039;-86
2021/08/08 00:50:58;;;;;;;2.97;2.17;;;;;;;;;;5081451;28;20023;-86
2021/08/08 00:53:25;;;;;;;4.60;2.33;;;;;;;;;;5080449;28;20035;-85
2021/08/08 00:55:51;;;;;;;3.45;1.85;;;;;;;;;;5081241;28;20032;-87
2021/08/08 00:58:17;;;;;;;4.38;2.28;;;;;;;;;;5080141;28;20073;-85
2021/08/08 01:00:43;;;;;;;2.53;1.90;;;;;;;;;;5081361;28;20035;-85
2021/08/08 01:03:13;;;;;;;4.15;2.30;;;;;;;;;;5081015;28;20090;-85
2021/08/08 01:05:44;;;;;;;3.83;1.95;;;;;;;;;;5081054;28;20029;-85
2021/08/08 01:08:15;;;;;;;4.35;2.20;;;;;;;;;;5080200;28;20032;-86
2021/08/08 01:10:41;;;;;;;3.72;2.00;;;;;;;;;;5081267;28;20060;-86
2021/08/08 01:13:08;;;;;;;2.97;2.00;;;;;;;;;;5079942;28;20054;-86
2021/08/08 01:15:35;;;;;;;7.25;2.00;;;;;;;;;;5081067;28;20070;-86
2021/08/08 01:18:01;;;;;;;4.22;2.10;;;;;;;;;;5080213;28;20021;-86
2021/08/08 01:20:29;;;;;;;3.85;1.70;;;;;;;;;;5080714;28;20086;-85
2021/08/08 01:22:57;;;;;;;3.58;2.03;;;;;;;;;;5080751;28;20295;-86
2021/08/08 01:25:24;;;;;;;5.47;2.08;;;;;;;;;;5080436;28;20052;-86
2021/08/08 01:27:54;;;;;;;4.88;2.30;;;;;;;;;;5080553;28;20036;-86
2021/08/08 01:30:20;;;;;;;3.33;2.25;;;;;;;;;;5080716;28;20040;-86
2021/08/08 01:32:46;;;;;;;3.33;2.10;;;;;;;;;;5080396;28;20091;-86
2021/08/08 01:35:13;;;;;;;3.53;2.30;;;;;;;;;;5080454;28;20323;-85
2021/08/08 01:37:39;;;;;;;4.40;2.60;;;;;;;;;;5080385;28;20033;-85
2021/08/08 01:40:24;;;;;;;4.70;2.80;;;;;;;;;;5079583;28;20464;-86
2021/08/08 01:42:53;;;;;;;3.63;2.20;;;;;;;;;;5080630;28;20028;-86
2021/08/08 01:45:20;;;;;;;4.32;2.40;;;;;;;;;;5080330;28;20024;-86
2021/08/08 01:47:48;;;;;;;3.40;2.28;;;;;;;;;;5080155;28;20366;-86
2021/08/08 01:50:15;;;;;;;4.53;2.22;;;;;;;;;;5080318;28;20387;-86
2021/08/08 01:52:41;;;;;;;6.22;2.50;;;;;;;;;;5080090;28;20028;-86
2021/08/08 01:55:07;;;;;;;4.22;2.60;;;;;;;;;;5080411;28;20035;-85
2021/08/08 01:57:34;;;;;;;3.95;2.47;;;;;;;;;;5079983;28;20032;-84
2021/08/08 02:00:00;;;;;;;5.85;2.95;;;;;;;;;;5079186;28;20025;-85
2021/08/08 02:02:26;;;;;;;3.85;2.55;;;;;;;;;;5080067;28;20024;-85
2021/08/08 02:04:52;;;;;;;8.30;2.70;;;;;;;;;;5078825;28;20028;-86
2021/08/08 02:07:19;;;;;;;6.43;2.63;;;;;;;;;;5079882;28;20112;-87
2021/08/08 02:09:45;;;;;;;5.13;2.60;;;;;;;;;;5079935;28;20450;-87
2021/08/08 02:12:12;;;;;;;5.25;2.92;;;;;;;;;;5080066;28;20070;-86
2021/08/08 02:14:38;;;;;;;7.10;3.10;;;;;;;;;;5079955;28;20029;-85
2021/08/08 02:17:05;;;;;;;8.43;3.88;;;;;;;;;;5079894;28;20055;-85
2021/08/08 02:19:31;;;;;;;8.85;3.95;;;;;;;;;;5079562;28;20057;-85
2021/08/08 02:21:57;;;;;;;7.80;3.83;;;;;;;;;;5079474;28;20025;-85
2021/08/08 02:24:24;;;;;;;8.23;4.63;;;;;;;;;;5079388;28;20113;-85
2021/08/08 02:26:50;;;;;;;9.68;4.97;;;;;;;;;;5079316;28;20161;-85
2021/08/08 02:29:16;;;;;;;10.18;5.22;;;;;;;;;;5078466;28;20027;-85
2021/08/08 02:31:43;;;;;;;14.45;5.88;;;;;;;;;;5079121;28;20025;-85
2021/08/08 02:34:10;;;;;;;13.68;6.53;;;;;;;;;;5079464;28;20319;-86
2021/08/08 02:36:36;;;;;;;12.23;6.38;;;;;;;;;;5079317;28;20028;-86
2021/08/08 02:39:03;;;;;;;15.38;7.32;;;;;;;;;;5078301;28;20033;-86
2021/08/08 02:41:29;;;;;;;10.25;6.30;;;;;;;;;;5079325;28;20020;-86
2021/08/08 02:43:55;;;;;;;14.32;7.63;;;;;;;;;;5079397;28;20044;-86
2021/08/08 02:46:22;;;;;;;11.30;6.80;;;;;;;;;;5079041;28;20027;-86
2021/08/08 02:48:48;;;;;;;14.48;8.07;;;;;;;;;;5079128;28;20023;-86
2021/08/08 02:51:14;;;;;;;13.38;7.82;;;;;;;;;;5079161;28;20071;-86
2021/08/08 02:53:40;;;;;;;17.50;8.93;;;;;;;;;;5078998;28;20029;-86
2021/08/08 02:56:06;;;;;;;15.10;9.52;;;;;;;;;;5078982;28;20028;-86
2021/08/08 02:58:33;;;;;;;18.98;9.95;;;;;;;;;;5078927;28;20027;-86
2021/08/08 03:00:59;;;;;;;20.50;10.90;;;;;;;;;;5078992;28;20078;-86
2021/08/08 03:03:25;;;;;;;18.65;10.55;;;;;;;;;;5078700;28;20025;-86
2021/08/08 03:05:51;;;;;;;20.27;11.45;;;;;;;;;;5078593;28;20028;-86
2021/08/08 03:08:17;;;;;;;20.45;11.70;;;;;;;;;;5078605;28;20020;-85
2021/08/08 03:10:44;;;;;;;21.38;12.55;;;;;;;;;;5078605;28;20086;-86
2021/08/08 03:13:10;;;;;;;23.10;13.15;;;;;;;;;;5078612;28;20020;-85
2021/08/08 03:15:36;;;;;;;23.30;13.32;;;;;;;;;;5077431;28;20029;-85
2021/08/08 03:18:02;;;;;;;21.73;13.65;;;;;;;;;;5078426;28;20024;-85
2021/08/08 03:20:28;;;;;;;21.58;12.88;;;;;;;;;;5078349;28;20028;-85
2021/08/08 03:22:54;;;;;;;25.27;13.57;;;;;;;;;;5077412;28;20052;-86
2021/08/08 03:25:20;;;;;;;23.35;13.98;;;;;;;;;;5077088;28;20040;-85
2021/08/08 03:27:50;;;;;;;25.52;14.35;;;;;;;;;;5077065;28;20399;-84
2021/08/08 03:30:16;;;;;;;25.83;14.15;;;;;;;;;;5077186;28;20037;-84
2021/08/08 03:32:42;;;;;;;23.02;13.95;;;;;;;;;;5078166;28;20099;-84
2021/08/08 03:35:09;;;;;;;24.42;14.30;;;;;;;;;;5078028;28;20073;-85
2021/08/08 03:37:35;;;;;;;22.70;14.05;;;;;;;;;;5076944;28;20078;-84
2021/08/08 03:40:01;;;;;;;26.17;13.20;;;;;;;;;;5077831;28;20021;-84
2021/08/08 03:42:27;;;;;;;19.90;12.88;;;;;;;;;;5076662;28;20029;-84
2021/08/08 03:44:53;;;;;;;23.25;12.63;;;;;;;;;;5077821;28;20052;-85
2021/08/08 03:47:19;;;;;;;20.98;12.05;;;;;;;;;;5077915;28;20028;-85
2021/08/08 03:49:45;;;;;;;23.08;12.43;;;;;;;;;;5077923;28;20029;-85
2021/08/08 03:52:12;;;;;;;21.10;11.70;;;;;;;;;;5077133;28;20111;-85
2021/08/08 03:54:38;;;;;;;21.00;11.50;;;;;;;;;;5078170;28;20043;-84
2021/08/08 03:57:04;;;;;;;21.20;10.77;;;;;;;;;;5077767;28;20108;-85
2021/08/08 03:59:30;;;;;;;17.65;9.68;;;;;;;;;;5078114;28;20082;-85
2021/08/08 04:01:56;;;;;;;18.67;9.40;;;;;;;;;;5076929;28;20062;-85
2021/08/08 04:04:22;;;;;;;18.35;9.25;;;;;;;;;;5077983;28;20024;-86
2021/08/08 04:06:48;;;;;;;15.57;9.07;;;;;;;;;;5076988;28;20056;-86
2021/08/08 04:09:14;;;;;;;15.90;8.63;;;;;;;;;;5076405;28;20025;-86
2021/08/08 04:11:40;;;;;;;14.77;8.15;;;;;;;;;;5077877;28;20028;-85
2021/08/08 04:14:06;;;;;;;12.63;8.02;;;;;;;;;;5076683;28;20398;-86
2021/08/08 04:16:32;;;;;;;13.98;7.15;;;;;;;;;;5077660;28;20326;-85
2021/08/08 04:18:58;;;;;;;13.95;6.90;;;;;;;;;;5077840;28;20061;-86
2021/08/08 04:21:24;;;;;;;12.82;6.95;;;;;;;;;;5077337;28;20029;-84
2021/08/08 04:23:51;;;;;;;11.88;6.85;;;;;;;;;;5075839;28;20036;-84
2021/08/08 04:26:17;;;;;;;15.27;6.07;;;;;;;;;;5076218;28;20041;-84
2021/08/08 04:28:43;;;;;;;9.73;5.90;;;;;;;;;;5076096;28;20028;-84
2021/08/08 04:31:09;;;;;;;10.90;5.78;;;;;;;;;;5076124;28;20074;-84
2021/08/08 04:33:36;;;;;;;11.45;5.90;;;;;;;;;;5077290;28;20540;-84
2021/08/08 04:36:03;;;;;;;10.13;5.55;;;;;;;;;;5077270;28;20028;-86
2021/08/08 04:38:29;;;;;;;11.70;5.72;;;;;;;;;;5077265;28;20025;-86
2021/08/08 04:40:55;;;;;;;8.73;5.45;;;;;;;;;;5077209;28;20046;-85
2021/08/08 04:43:21;;;;;;;11.30;5.00;;;;;;;;;;5077436;28;20099;-85
2021/08/08 04:45:47;;;;;;;7.85;5.18;;;;;;;;;;5076216;28;20020;-85
2021/08/08 04:48:13;;;;;;;9.13;5.18;;;;;;;;;;5077212;28;20020;-85
2021/08/08 04:50:39;;;;;;;9.52;4.97;;;;;;;;;;5077285;28;20036;-85
2021/08/08 04:53:05;;;;;;;12.10;5.18;;;;;;;;;;5077066;28;20020;-85
2021/08/08 04:55:31;;;;;;;10.73;5.10;;;;;;;;;;5076078;28;20033;-85
2021/08/08 04:57:57;;;;;;;11.18;5.70;;;;;;;;;;5076905;28;20062;-85
2021/08/08 05:00:23;;;;;;;12.45;6.22;;;;;;;;;;5077142;28;20070;-84
2021/08/08 05:02:50;;;;;;;17.63;6.25;;;;;;;;;;5075854;28;20025;-84
2021/08/08 05:05:16;;;;;;;11.13;5.78;;;;;;;;;;5076750;28;20024;-84
2021/08/08 05:07:44;;;;;;;13.80;5.97;;;;;;;;;;5076850;28;20051;-84
2021/08/08 05:10:11;;;;;;;13.20;6.05;;;;;;;;;;5076813;28;20107;-84
2021/08/08 05:12:38;;;;;;;10.43;5.88;;;;;;;;;;5076706;28;20038;-84
2021/08/08 05:15:04;;;;;;;10.98;6.53;;;;;;;;;;5076957;28;20020;-84
2021/08/08 05:17:31;;;;;;;9.57;5.65;;;;;;;;;;5076613;28;20046;-83
2021/08/08 05:19:57;;;;;;;11.88;5.72;;;;;;;;;;5076735;28;20031;-85
2021/08/08 05:22:23;;;;;;;10.00;6.25;;;;;;;;;;5076787;28;20063;-85
2021/08/08 05:24:49;;;;;;;11.43;6.05;;;;;;;;;;5075750;28;20040;-85
2021/08/08 05:27:15;;;;;;;12.95;6.22;;;;;;;;;;5076624;28;20029;-85
2021/08/08 05:29:41;;;;;;;13.80;6.43;;;;;;;;;;5076650;28;20398;-85
2021/08/08 05:32:07;;;;;;;10.52;6.00;;;;;;;;;;5076566;28;20016;-85
2021/08/08 05:34:33;;;;;;;14.48;6.50;;;;;;;;;;5077779;28;20031;-85
2021/08/08 05:36:59;;;;;;;11.70;7.13;;;;;;;;;;5079231;28;20023;-84
2021/08/08 05:39:25;;;;;;;23.02;16.08;;;;;;;;;;5079910;28;20048;-85
2021/08/08 05:41:51;;;;;;;19.08;8.27;;;;;;;;;;5080154;28;20025;-85
2021/08/08 05:44:17;;;;;;;14.18;6.88;;;;;;;;;;5079985;28;20036;-85
2021/08/08 05:46:43;;;;;;;12.93;7.05;;;;;;;;;;5079068;28;20429;-85
2021/08/08 05:49:09;;;;;;;13.02;7.00;;;;;;;;;;5080164;28;20307;-85
2021/08/08 05:51:36;;;;;;;16.10;7.63;;;;;;;;;;5080302;28;20020;-85
2021/08/08 05:54:02;;;;;;;12.32;7.18;;;;;;;;;;5080142;28;20382;-84
2021/08/08 05:56:28;;;;;;;16.17;8.15;;;;;;;;;;5079576;28;20039;-84
2021/08/08 05:58:54;;;;;;;15.32;8.05;;;;;;;;;;5079904;28;20028;-84
2021/08/08 06:01:20;;;;;;;17.20;7.53;;;;;;;;;;5079613;28;20124;-85
2021/08/08 06:03:47;;;;;;;33.50;21.73;;;;;;;;;;5079833;28;20307;-85
2021/08/08 06:06:13;;;;;;;32.88;21.95;;;;;;;;;;5078842;28;20033;-84
2021/08/08 06:08:39;;;;;;;18.13;10.38;;;;;;;;;;5080027;28;20024;-85
2021/08/08 06:11:06;;;;;;;21.15;9.40;;;;;;;;;;5079755;28;20024;-84
2021/08/08 06:13:32;;;;;;;14.30;9.50;;;;;;;;;;5078544;28;20107;-84
2021/08/08 06:15:58;;;;;;;19.13;11.00;;;;;;;;;;5078670;28;20032;-84
2021/08/08 06:18:24;;;;;;;18.02;11.00;;;;;;;;;;5079583;28;20024;-84
2021/08/08 06:20:50;;;;;;;23.38;15.90;;;;;;;;;;5079643;28;20029;-84
2021/08/08 06:23:16;;;;;;;42.85;31.08;;;;;;;;;;5078606;28;20411;-86
2021/08/08 06:25:42;;;;;;;18.75;11.57;;;;;;;;;;5079381;28;20059;-85
2021/08/08 06:28:08;;;;;;;22.27;10.60;;;;;;;;;;5078431;28;20034;-86
2021/08/08 06:30:34;;;;;;;45.60;34.38;;;;;;;;;;5078809;28;20070;-86
2021/08/08 06:33:00;;;;;;;21.52;13.02;;;;;;;;;;5079609;28;20372;-86
2021/08/08 06:35:27;;;;;;;22.80;15.00;;;;;;;;;;5079596;28;20086;-86
2021/08/08 06:37:53;;;;;;;18.50;8.45;;;;;;;;;;5079384;28;20024;-85
2021/08/08 06:40:19;;;;;;;18.38;9.30;;;;;;;;;;5079314;28;20437;-85
2021/08/08 06:42:45;;;;;;;18.13;8.82;;;;;;;;;;5078344;28;20032;-85
2021/08/08 06:45:12;;;;;;;17.63;8.63;;;;;;;;;;5078483;28;20032;-86
2021/08/08 06:47:38;;;;;;;14.93;8.35;;;;;;;;;;5078355;28;20032;-85
2021/08/08 06:50:05;;;;;;;16.05;7.70;;;;;;;;;;5079031;28;20025;-85
2021/08/08 06:52:31;;;;;;;17.77;10.88;;;;;;;;;;5078667;28;20103;-84
2021/08/08 06:54:57;;;;;;;25.33;15.43;;;;;;;;;;5078570;28;20025;-84
2021/08/08 06:57:23;;;;;;;29.50;18.42;;;;;;;;;;5078744;28;20028;-84
2021/08/08 06:59:49;;;;;;;26.15;17.63;;;;;;;;;;5078654;28;20017;-85
2021/08/08 07:02:15;;;;;;;25.42;16.52;;;;;;;;;;5077834;28;20371;-85
2021/08/08 07:04:42;;;;;;;18.23;9.20;;;;;;;;;;5078915;28;20028;-84
2021/08/08 07:07:08;;;;;;;14.10;8.40;;;;;;;;;;5078393;28;20028;-77
2021/08/08 07:09:34;;;;;;;15.45;8.13;;;;;;;;;;5077415;28;20035;-77
2021/08/08 07:12:00;;;;;;;14.93;7.78;;;;;;;;;;5078153;28;20017;-77
2021/08/08 07:14:27;;;;;;;32.80;22.55;;;;;;;;;;5078162;28;20086;-77
2021/08/08 07:16:53;;;;;;;16.45;9.60;;;;;;;;;;5077186;28;20078;-77
2021/08/08 07:19:19;;;;;;;15.73;8.75;;;;;;;;;;5077063;28;20037;-77
2021/08/08 07:21:45;;;;;;;26.05;14.02;;;;;;;;;;5077783;28;20052;-77
2021/08/08 07:24:12;;;;;;;16.90;8.73;;;;;;;;;;5077728;28;20427;-77
2021/08/08 07:26:38;;;;;;;16.48;8.27;;;;;;;;;;5077808;28;20036;-77
2021/08/08 07:29:04;;;;;;;16.08;7.68;;;;;;;;;;5077783;28;20028;-77
2021/08/08 07:31:30;;;;;;;20.75;9.77;;;;;;;;;;5077704;28;20391;-77
2021/08/08 07:33:56;;;;;;;21.15;8.38;;;;;;;;;;5077811;28;20357;-75
2021/08/08 07:36:22;;;;;;;21.33;9.77;;;;;;;;;;5077891;28;20028;-75
2021/08/08 07:38:48;;;;;;;18.65;7.88;;;;;;;;;;5077674;28;20066;-75
2021/08/08 07:41:14;;;;;;;19.77;11.38;;;;;;;;;;5076579;28;20036;-75
2021/08/08 07:43:40;;;;;;;24.60;14.30;;;;;;;;;;5076465;28;20390;-75
2021/08/08 07:46:07;;;;;;;14.63;8.80;;;;;;;;;;5077506;28;20107;-75
2021/08/08 07:48:33;;;;;;;15.40;7.82;;;;;;;;;;5077591;28;20027;-75
2021/08/08 07:50:59;;;;;;;17.15;10.35;;;;;;;;;;5077358;28;20029;-74
2021/08/08 07:53:25;;;;;;;19.73;8.60;;;;;;;;;;5076493;28;20390;-75
2021/08/08 07:55:55;;;;;;;14.13;8.23;;;;;;;;;;5077550;28;20032;-75
2021/08/08 07:58:21;;;;;;;13.45;7.72;;;;;;;;;;5076653;28;20524;-75
2021/08/08 08:00:47;;;;;;;20.30;13.00;;;;;;;;;;5077323;28;20118;-75
2021/08/08 08:03:13;;;;;;;32.47;23.33;;;;;;;;;;5076196;28;20064;-75
2021/08/08 08:05:39;;;;;;;14.65;8.82;;;;;;;;;;5077091;28;20295;-75
2021/08/08 08:08:06;;;;;;;16.13;10.55;;;;;;;;;;5077169;28;20021;-75
2021/08/08 08:10:32;;;;;;;22.65;15.48;;;;;;;;;;5077179;28;20318;-75
2021/08/08 08:12:59;;;;;;;17.05;10.82;;;;;;;;;;5077305;28;20142;-77
2021/08/08 08:15:25;;;;;;;11.80;7.20;;;;;;;;;;5077196;28;20028;-77
2021/08/08 08:17:51;;;;;;;11.07;6.60;;;;;;;;;;5077087;28;20032;-77
2021/08/08 08:20:18;;;;;;;12.00;5.65;;;;;;;;;;5077343;28;20037;-84
2021/08/08 08:22:44;;;;;;;21.38;14.77;;;;;;;;;;5077420;28;20024;-81
2021/08/08 08:25:11;;;;;;;16.45;10.35;;;;;;;;;;5077305;28;20044;-87
2021/08/08 08:27:39;;;;;;;13.15;9.02;;;;;;;;;;5077273;28;20049;-81
2021/08/08 08:30:06;;;;;;;18.20;12.43;;;;;;;;;;5076713;28;20064;-82
2021/08/08 08:32:33;;;;;;;21.02;11.70;;;;;;;;;;5077433;28;20442;-83
2021/08/08 08:35:03;;;;;;;18.67;11.68;;;;;;;;;;5077204;28;20031;-83
2021/08/08 08:37:33;;;;;;;23.73;19.08;;;;;;;;;;5076345;28;20028;-82
2021/08/08 08:39:59;;;;;;;14.48;9.85;;;;;;;;;;5059877;28;20386;-84
2021/08/08 08:42:28;;;;;;;14.43;8.13;;;;;;;;;;5078288;28;20055;-91
2021/08/08 08:44:55;;;;;;;11.32;6.20;;;;;;;;;;5077751;28;20044;-88
2021/08/08 08:47:24;;;;;;;14.43;7.75;;;;;;;;;;5077539;28;20360;-88
2021/08/08 08:50:04;;;;;;;17.80;10.27;;;;;;;;;;5077721;28;20429;-94
2021/08/08 08:52:30;;;;;;;14.60;8.80;;;;;;;;;;5059882;28;20029;-83
2021/08/08 08:54:56;;;;;;;19.70;7.60;;;;;;;;;;5077067;28;20032;-87
2021/08/08 08:57:23;;;;;;;12.50;6.88;;;;;;;;;;5077815;28;20036;-93
2021/08/08 08:59:49;;;;;;;12.60;8.25;;;;;;;;;;5076380;28;20032;-92
2021/08/08 09:02:16;;;;;;;12.43;6.25;;;;;;;;;;5077479;28;20029;-94
2021/08/08 09:04:42;;;;;;;13.73;8.95;;;;;;;;;;5076338;28;20249;-94
2021/08/08 09:07:09;;;;;;;17.80;10.05;;;;;;;;;;5076212;28;20030;-93
2021/08/08 09:09:36;;;;;;;14.43;7.65;;;;;;;;;;5079018;28;20058;-93
2021/08/08 09:12:02;;;;;;;12.90;7.80;;;;;;;;;;5080159;28;20031;-94
2021/08/08 09:14:28;;;;;;;16.42;9.65;;;;;;;;;;5081153;28;20104;-94
2021/08/08 09:16:55;;;;;;;14.10;8.13;;;;;;;;;;5080003;28;20407;-94
2021/08/08 09:19:22;;;;;;;12.90;7.18;;;;;;;;;;5080369;28;20025;-95
2021/08/08 09:21:49;;;;;;;12.80;8.20;;;;;;;;;;5080589;28;20052;-96
2021/08/08 09:24:25;;;;;;;12.15;6.70;;;;;;;;;;5080636;28;20045;-95
2021/08/08 09:27:00;;;;;;;11.52;7.22;;;;;;;;;;5080591;28;20036;-94
2021/08/08 09:29:26;;;;;;;15.38;9.70;;;;;;;;;;5081487;28;20039;-95
2021/08/08 09:31:52;;;;;;;12.48;6.85;;;;;;;;;;5081957;28;20056;-88
2021/08/08 09:34:52;;;;;;;15.10;5.82;;;;;;;;;;5081030;28;20100;-94
2021/08/08 09:37:22;;;;;;;15.00;6.32;;;;;;;;;;5080543;28;20035;-95
2021/08/08 09:39:52;;;;;;;10.90;6.28;;;;;;;;;;5080859;28;20025;-94
2021/08/08 09:42:18;;;;;;;14.05;6.03;;;;;;;;;;5079803;28;20063;-95
2021/08/08 09:44:52;;;;;;;14.43;6.35;;;;;;;;;;5080494;28;20035;-95
2021/08/08 09:47:19;;;;;;;10.27;5.80;;;;;;;;;;5081033;28;20031;-95
2021/08/08 09:49:54;;;;;;;13.60;6.50;;;;;;;;;;5080581;28;20020;-94
2021/08/08 09:52:23;;;;;;;11.90;6.93;;;;;;;;;;5080508;28;20030;-94
2021/08/08 09:54:49;;;;;;;12.98;6.93;;;;;;;;;;5079396;28;20346;-93
2021/08/08 09:57:15;;;;;;;13.13;6.88;;;;;;;;;;5079957;28;20024;-93
2021/08/08 09:59:52;;;;;;;16.27;7.13;;;;;;;;;;5079522;28;20131;-92
2021/08/08 10:02:22;;;;;;;26.48;16.67;;;;;;;;;;5080168;28;20441;-92
2021/08/08 10:04:49;;;;;;;12.45;7.40;;;;;;;;;;5080486;28;20082;-93
2021/08/08 10:07:18;;;;;;;12.57;6.28;;;;;;;;;;5079000;28;20039;-93
2021/08/08 10:09:46;;;;;;;12.10;7.18;;;;;;;;;;5079104;28;20020;-93
2021/08/08 10:12:21;;;;;;;11.43;7.00;;;;;;;;;;5080227;28;20057;-93
2021/08/08 10:14:48;;;;;;;12.38;6.82;;;;;;;;;;5079018;28;20052;-94
2021/08/08 10:17:14;;;;;;;9.52;5.93;;;;;;;;;;5078896;28;20031;-94
2021/08/08 10:19:41;;;;;;;11.85;7.05;;;;;;;;;;5078709;28;20024;-93
2021/08/08 10:22:07;;;;;;;12.43;5.97;;;;;;;;;;5079325;28;20067;-93
2021/08/08 10:24:34;;;;;;;12.52;7.65;;;;;;;;;;5078548;28;20048;-93
2021/08/08 10:27:00;;;;;;;11.57;6.47;;;;;;;;;;5079680;28;20070;-93
2021/08/08 10:29:26;;;;;;;8.43;6.30;;;;;;;;;;5079526;28;20027;-94
2021/08/08 10:31:52;;;;;;;12.02;5.88;;;;;;;;;;5079007;28;20028;-94
2021/08/08 10:34:28;;;;;;;13.63;7.32;;;;;;;;;;5079987;28;20425;-92
2021/08/08 10:36:54;;;;;;;8.80;4.78;;;;;;;;;;5079822;28;20021;-93
2021/08/08 10:39:20;;;;;;;10.70;4.90;;;;;;;;;;5078639;28;20024;-93
2021/08/08 10:41:57;;;;;;;7.57;4.50;;;;;;;;;;5079564;28;20032;-93
2021/08/08 10:44:25;;;;;;;8.48;4.57;;;;;;;;;;5079333;28;20424;-92
2021/08/08 10:46:55;;;;;;;11.20;5.07;;;;;;;;;;5078868;28;20059;-92
2021/08/08 10:49:28;;;;;;;13.68;5.60;;;;;;;;;;5078968;28;20042;-96
2021/08/08 10:52:01;;;;;;;6.57;4.88;;;;;;;;;;5079714;28;20027;-93
2021/08/08 10:54:27;;;;;;;9.48;5.30;;;;;;;;;;5079668;28;20041;-94
2021/08/08 10:56:54;;;;;;;11.35;5.20;;;;;;;;;;5078368;28;20082;-94
2021/08/08 10:59:21;;;;;;;8.80;4.53;;;;;;;;;;5078276;28;20028;-92
2021/08/08 11:01:48;;;;;;;9.90;4.75;;;;;;;;;;5079076;28;20025;-93
2021/08/08 11:04:15;;;;;;;9.88;4.03;;;;;;;;;;5079064;28;20086;-93
2021/08/08 11:06:42;;;;;;;7.70;4.13;;;;;;;;;;5078795;28;20051;-91
2021/08/08 11:09:08;;;;;;;4.60;3.30;;;;;;;;;;5078753;28;20128;-92
2021/08/08 11:11:35;;;;;;;9.32;3.97;;;;;;;;;;5078809;28;20073;-92
2021/08/08 11:14:22;;;;;;;5.72;3.33;;;;;;;;;;5079451;28;20016;-91
2021/08/08 11:16:57;;;;;;;6.47;3.40;;;;;;;;;;5077706;28;20327;-91
2021/08/08 11:19:30;;;;;;;4.55;3.38;;;;;;;;;;5078574;28;20021;-91
2021/08/08 11:22:04;;;;;;;7.97;3.60;;;;;;;;;;5077540;28;20039;-91
2021/08/08 11:24:30;;;;;;;6.43;3.78;;;;;;;;;;5063115;28;20036;-85
2021/08/08 11:26:56;;;;;;;8.20;4.00;;;;;;;;;;5066465;28;20029;-88
2021/08/08 11:29:23;;;;;;;10.70;4.07;;;;;;;;;;5077701;28;20025;-91
2021/08/08 11:31:52;;;;;;;8.43;3.88;;;;;;;;;;5064140;28;20021;-86
2021/08/08 11:34:23;;;;;;;5.20;3.38;;;;;;;;;;5078101;28;20024;-87
2021/08/08 11:36:49;;;;;;;10.10;3.88;;;;;;;;;;5076817;28;20119;-79
2021/08/08 11:39:15;;;;;;;7.88;3.95;;;;;;;;;;5077603;28;20480;-79
2021/08/08 11:41:42;;;;;;;6.93;3.75;;;;;;;;;;5077706;28;20406;-82
2021/08/08 11:44:12;;;;;;;8.48;4.43;;;;;;;;;;5077089;28;20042;-86
2021/08/08 11:46:39;;;;;;;9.00;5.05;;;;;;;;;;5077838;28;20028;-85
2021/08/08 11:49:34;;;;;;;7.55;3.40;;;;;;;;;;5077801;28;20020;-85
2021/08/08 11:52:04;;;;;;;7.38;3.95;;;;;;;;;;5075747;28;20427;-84
2021/08/08 11:54:31;;;;;;;5.63;3.03;;;;;;;;;;5077924;28;20052;-84
2021/08/08 11:56:57;;;;;;;7.53;3.10;;;;;;;;;;5077755;28;20032;-86
2021/08/08 11:59:25;;;;;;;7.05;3.65;;;;;;;;;;5077473;28;20025;-91
2021/08/08 12:02:01;;;;;;;8.05;4.38;;;;;;;;;;5076610;28;20074;-83
2021/08/08 12:04:28;;;;;;;6.32;3.97;;;;;;;;;;5077648;28;20027;-87
2021/08/08 12:06:55;;;;;;;7.95;3.38;;;;;;;;;;5077264;28;20078;-81
2021/08/08 12:09:24;;;;;;;6.80;3.28;;;;;;;;;;5076293;28;20017;-79
2021/08/08 12:11:55;;;;;;;7.00;3.55;;;;;;;;;;5077208;28;20020;-79
2021/08/08 12:14:40;;;;;;;6.97;2.75;;;;;;;;;;5077034;28;20474;-79
2021/08/08 12:17:06;;;;;;;6.97;3.08;;;;;;;;;;5076037;28;20032;-79
2021/08/08 12:19:33;;;;;;;6.78;3.38;;;;;;;;;;5076205;28;20059;-79
2021/08/08 12:22:01;;;;;;;7.63;3.70;;;;;;;;;;5077211;28;20052;-79
2021/08/08 12:24:31;;;;;;;5.30;2.70;;;;;;;;;;5076924;28;20461;-79
2021/08/08 12:26:57;;;;;;;6.10;3.50;;;;;;;;;;5077015;28;20430;-79
2021/08/08 12:29:30;;;;;;;6.10;3.00;;;;;;;;;;5077019;28;20310;-79
2021/08/08 12:32:04;;;;;;;5.97;2.75;;;;;;;;;;5075947;28;20395;-79
2021/08/08 12:34:31;;;;;;;5.28;3.83;;;;;;;;;;5077007;28;20276;-79
2021/08/08 12:37:02;;;;;;;5.70;3.70;;;;;;;;;;5077045;28;20020;-78
2021/08/08 12:39:28;;;;;;;4.40;3.00;;;;;;;;;;5076269;28;20037;-79
2021/08/08 12:41:54;;;;;;;5.60;3.80;;;;;;;;;;5076972;28;20032;-79
2021/08/08 12:44:30;;;;;;;10.30;3.85;;;;;;;;;;5078144;28;20044;-79
2021/08/08 12:47:00;;;;;;;7.78;3.95;;;;;;;;;;5080763;28;20029;-79
2021/08/08 12:49:32;;;;;;;6.50;3.92;;;;;;;;;;5081149;28;20097;-79
2021/08/08 12:51:58;;;;;;;6.15;3.38;;;;;;;;;;5080898;28;20060;-79
2021/08/08 12:54:24;;;;;;;4.05;2.92;;;;;;;;;;5081018;28;20024;-79
2021/08/08 12:56:50;;;;;;;4.53;3.42;;;;;;;;;;5079921;28;20418;-79
2021/08/08 12:59:16;;;;;;;9.60;3.85;;;;;;;;;;5080762;28;20119;-78
2021/08/08 13:01:43;;;;;;;6.05;3.20;;;;;;;;;;5079595;28;20060;-79
2021/08/08 13:04:09;;;;;;;4.18;2.63;;;;;;;;;;5080760;28;20044;-79
2021/08/08 13:06:35;;;;;;;4.95;2.88;;;;;;;;;;5079774;28;20036;-79
2021/08/08 13:09:02;;;;;;;10.43;3.60;;;;;;;;;;5080541;28;20086;-79
2021/08/08 13:11:29;;;;;;;9.55;4.50;;;;;;;;;;5080135;28;20024;-80
2021/08/08 13:13:55;;;;;;;4.72;3.30;;;;;;;;;;5080385;28;20047;-79
2021/08/08 13:16:22;;;;;;;8.25;3.88;;;;;;;;;;5079644;28;20415;-79
2021/08/08 13:18:48;;;;;;;6.78;4.18;;;;;;;;;;5080390;28;20032;-79
2021/08/08 13:21:14;;;;;;;7.65;4.00;;;;;;;;;;5080216;28;20295;-80
2021/08/08 13:23:40;;;;;;;11.98;7.40;;;;;;;;;;5080123;28;20032;-79
2021/08/08 13:26:06;;;;;;;6.78;3.58;;;;;;;;;;5079351;28;20544;-79
2021/08/08 13:28:33;;;;;;;6.50;3.88;;;;;;;;;;5080284;28;20028;-76
2021/08/08 13:30:59;;;;;;;5.72;3.42;;;;;;;;;;5080150;28;20042;-76
2021/08/08 13:33:25;;;;;;;7.38;4.03;;;;;;;;;;5080148;28;20029;-76
2021/08/08 13:35:51;;;;;;;5.35;3.55;;;;;;;;;;5080197;28;20083;-76
2021/08/08 13:38:17;;;;;;;8.60;3.85;;;;;;;;;;5080069;28;20086;-76
2021/08/08 13:40:44;;;;;;;7.30;3.60;;;;;;;;;;5079982;28;20040;-76
2021/08/08 13:43:10;;;;;;;5.47;3.58;;;;;;;;;;5078861;28;20025;-76
2021/08/08 13:45:36;;;;;;;8.07;3.40;;;;;;;;;;5079505;28;20032;-76
2021/08/08 13:48:02;;;;;;;5.18;3.42;;;;;;;;;;5079044;28;20060;-76
2021/08/08 13:50:28;;;;;;;6.03;3.08;;;;;;;;;;5078720;28;20025;-76
2021/08/08 13:52:54;;;;;;;8.38;3.65;;;;;;;;;;5079695;28;20091;-76
2021/08/08 13:55:20;;;;;;;5.97;3.85;;;;;;;;;;5077662;28;20043;-76
2021/08/08 13:57:47;;;;;;;6.53;3.70;;;;;;;;;;5079619;28;20024;-76
2021/08/08 14:00:13;;;;;;;6.68;3.30;;;;;;;;;;5079811;28;20025;-76
2021/08/08 14:02:40;;;;;;;5.75;3.78;;;;;;;;;;5079664;28;20020;-76
2021/08/08 14:05:09;;;;;;;4.82;3.20;;;;;;;;;;5079557;28;20017;-76
2021/08/08 14:07:35;;;;;;;7.07;4.00;;;;;;;;;;5079623;28;20029;-77
2021/08/08 14:10:02;;;;;;;7.72;4.00;;;;;;;;;;5079127;28;20048;-76
2021/08/08 14:12:30;;;;;;;6.65;3.97;;;;;;;;;;5079587;28;20021;-76
2021/08/08 14:14:56;;;;;;;7.45;3.80;;;;;;;;;;5079363;28;20030;-76
2021/08/08 14:17:22;;;;;;;8.18;4.63;;;;;;;;;;5079269;28;20041;-76
2021/08/08 14:19:48;;;;;;;7.45;4.35;;;;;;;;;;5079381;28;20051;-76
2021/08/08 14:22:14;;;;;;;8.10;3.67;;;;;;;;;;5079490;28;20104;-76
2021/08/08 14:24:40;;;;;;;8.63;3.80;;;;;;;;;;5078170;28;20327;-76
2021/08/08 14:27:07;;;;;;;6.40;3.63;;;;;;;;;;5078063;28;20094;-76
2021/08/08 14:29:36;;;;;;;6.32;3.72;;;;;;;;;;5079119;28;20016;-76
2021/08/08 14:32:04;;;;;;;7.40;4.22;;;;;;;;;;5079104;28;20103;-76
2021/08/08 14:34:30;;;;;;;11.07;4.20;;;;;;;;;;5078939;28;20031;-76